createdAt,value
2022-10-05T00:01:45.603Z,8.21
2022-10-05T00:04:19.903Z,8.21
2022-10-05T00:06:57.265Z,8.15
2022-10-05T00:09:24.263Z,8.03
2022-10-05T00:11:51.843Z,8.15
2022-10-05T00:14:20.840Z,8.07
2022-10-05T00:16:48.415Z,7.97
2022-10-05T00:19:19.430Z,7.95
2022-10-05T00:21:46.346Z,7.91
2022-10-05T00:24:15.982Z,7.91
2022-10-05T00:26:43.111Z,8.02
2022-10-05T00:29:21.980Z,8.08
2022-10-05T00:31:49.269Z,8.18
2022-10-05T00:34:17.034Z,8.23
2022-10-05T00:36:44.325Z,8.32
2022-10-05T00:39:11.602Z,8.29
2022-10-05T00:41:46.448Z,8.17
2022-10-05T00:44:39.697Z,8.37
2022-10-05T00:47:13.317Z,8.32
2022-10-05T00:49:58.453Z,8.39
2022-10-05T00:52:44.114Z,8.30
2022-10-05T00:55:18.913Z,8.25
2022-10-05T00:58:15.803Z,8.24
2022-10-05T01:00:54.451Z,8.10
2022-10-05T01:03:31.203Z,8.13
2022-10-05T01:05:58.504Z,8.26
2022-10-05T01:08:25.427Z,8.31
2022-10-05T01:10:52.433Z,8.30
2022-10-05T01:13:36.580Z,8.39
2022-10-05T01:16:22.045Z,8.39
2022-10-05T01:18:49.228Z,8.26
2022-10-05T01:21:23.587Z,8.23
2022-10-05T01:24:09.462Z,8.08
2022-10-05T01:26:48.752Z,7.95
2022-10-05T01:29:23.074Z,8.06
2022-10-05T01:32:16.395Z,8.01
2022-10-05T01:34:45.516Z,7.86
2022-10-05T01:37:12.602Z,7.94
2022-10-05T01:39:46.665Z,7.87
2022-10-05T01:42:20.546Z,7.95
2022-10-05T01:44:47.359Z,7.81
2022-10-05T01:47:18.563Z,7.73
2022-10-05T01:49:55.756Z,7.74
2022-10-05T01:52:28.635Z,7.82
2022-10-05T01:54:55.632Z,7.66
2022-10-05T01:57:22.443Z,7.61
2022-10-05T01:59:55.341Z,7.73
2022-10-05T02:02:23.907Z,7.72
2022-10-05T02:05:02.392Z,7.59
2022-10-05T02:07:34.295Z,7.68
2022-10-05T02:10:05.604Z,7.59
2022-10-05T02:12:35.793Z,7.57
2022-10-05T02:15:23.410Z,7.63
2022-10-05T02:17:52.991Z,7.63
2022-10-05T02:20:25.741Z,7.68
2022-10-05T02:22:58.383Z,7.71
2022-10-05T02:25:28.952Z,7.59
2022-10-05T02:28:10.032Z,7.60
2022-10-05T02:30:46.694Z,7.44
2022-10-05T02:33:27.232Z,7.45
2022-10-05T02:35:54.383Z,7.53
2022-10-05T02:38:31.800Z,7.48
2022-10-05T02:41:11.135Z,7.45
2022-10-05T02:44:13.515Z,7.41
2022-10-05T02:46:43.495Z,7.38
2022-10-05T02:49:13.864Z,7.43
2022-10-05T02:51:43.783Z,7.41
2022-10-05T02:54:26.213Z,7.33
2022-10-05T02:57:05.525Z,7.34
2022-10-05T02:59:40.741Z,7.19
2022-10-05T03:02:07.891Z,7.08
2022-10-05T03:04:37.800Z,7.12
2022-10-05T03:07:16.848Z,7.09
2022-10-05T03:09:48.139Z,7.10
2022-10-05T03:12:24.763Z,7.07
2022-10-05T03:15:03.990Z,7.14
2022-10-05T03:17:34.937Z,7.16
2022-10-05T03:20:17.516Z,7.03
2022-10-05T03:23:01.796Z,7.01
2022-10-05T03:25:28.872Z,6.97
2022-10-05T03:27:58.510Z,6.99
2022-10-05T03:30:29.378Z,7.07
2022-10-05T03:33:02.880Z,7.03
2022-10-05T03:35:44.645Z,6.93
2022-10-05T03:38:18.145Z,6.93
2022-10-05T03:40:47.651Z,6.96
2022-10-05T03:43:30.082Z,6.98
2022-10-05T03:45:57.327Z,7.01
2022-10-05T03:48:44.810Z,6.97
2022-10-05T03:51:21.034Z,6.86
2022-10-05T03:53:50.208Z,6.86
2022-10-05T03:56:17.204Z,6.89
2022-10-05T03:58:54.729Z,6.93
2022-10-05T04:01:25.660Z,6.95
2022-10-05T04:03:54.428Z,6.97
2022-10-05T04:06:24.145Z,6.91
2022-10-05T04:09:01.507Z,6.89
2022-10-05T04:11:38.291Z,6.98
2022-10-05T04:14:07.382Z,6.98
2022-10-05T04:16:45.884Z,6.97
2022-10-05T04:19:16.167Z,6.95
2022-10-05T04:21:48.811Z,6.98
2022-10-05T04:24:24.686Z,6.94
2022-10-05T04:26:55.252Z,6.99
2022-10-05T04:29:39.263Z,6.97
2022-10-05T04:32:18.224Z,7.08
2022-10-05T04:34:45.657Z,6.97
2022-10-05T04:37:32.906Z,7.02
2022-10-05T04:40:00.115Z,7.01
2022-10-05T04:42:34.599Z,7.06
2022-10-05T04:45:08.855Z,7.14
2022-10-05T04:47:38.467Z,7.09
2022-10-05T04:50:20.642Z,7.05
2022-10-05T04:53:05.770Z,6.99
2022-10-05T04:55:39.083Z,7.06
2022-10-05T04:58:05.880Z,7.01
2022-10-05T05:00:38.873Z,6.99
2022-10-05T05:03:14.642Z,6.98
2022-10-05T05:06:12.059Z,6.88
2022-10-05T05:08:41.754Z,6.89
2022-10-05T05:11:24.541Z,6.85
2022-10-05T05:14:10.112Z,6.83
2022-10-05T05:16:41.884Z,6.87
2022-10-05T05:19:09.178Z,6.87
2022-10-05T05:21:36.429Z,6.83
2022-10-05T05:24:23.631Z,6.90
2022-10-05T05:26:56.537Z,6.92
2022-10-05T05:29:23.738Z,6.91
2022-10-05T05:32:06.032Z,6.91
2022-10-05T05:34:39.172Z,7.05
2022-10-05T05:37:24.302Z,7.07
2022-10-05T05:39:57.653Z,7.11
2022-10-05T05:42:34.535Z,7.09
2022-10-05T05:45:07.816Z,7.14
2022-10-05T05:47:38.089Z,7.11
2022-10-05T05:50:32.481Z,7.11
2022-10-05T05:53:03.847Z,7.24
2022-10-05T05:55:40.653Z,7.30
2022-10-05T05:58:17.604Z,7.30
2022-10-05T06:00:52.894Z,7.32
2022-10-05T06:03:45.932Z,7.28
2022-10-05T06:06:15.894Z,7.34
2022-10-05T06:09:00.790Z,7.36
2022-10-05T06:11:40.259Z,7.24
2022-10-05T06:14:15.794Z,7.34
2022-10-05T06:16:52.504Z,7.30
2022-10-05T06:19:22.405Z,7.44
2022-10-05T06:22:02.804Z,7.36
2022-10-05T06:24:40.397Z,7.37
2022-10-05T06:27:07.462Z,7.42
2022-10-05T06:29:53.095Z,7.52
2022-10-05T06:32:24.327Z,7.66
2022-10-05T06:34:56.622Z,7.76
2022-10-05T06:37:32.493Z,7.78
2022-10-05T06:40:08.593Z,7.78
2022-10-05T06:42:48.215Z,7.76
2022-10-05T06:45:21.804Z,7.77
2022-10-05T06:48:01.581Z,7.71
2022-10-05T06:50:41.668Z,7.75
2022-10-05T06:53:29.473Z,7.84
2022-10-05T06:56:15.245Z,8.07
2022-10-05T06:58:58.111Z,8.18
2022-10-05T07:01:37.438Z,8.32
2022-10-05T07:04:23.305Z,8.58
2022-10-05T07:06:53.263Z,8.66
2022-10-05T07:09:39.756Z,8.87
2022-10-05T07:12:19.136Z,9.05
2022-10-05T07:15:04.591Z,9.15
2022-10-05T07:17:49.932Z,9.17
2022-10-05T07:20:23.511Z,9.16
2022-10-05T07:23:04.695Z,9.03
2022-10-05T07:25:36.920Z,8.97
2022-10-05T07:28:07.255Z,9.20
2022-10-05T07:30:57.645Z,9.35
2022-10-05T07:33:28.878Z,9.16
2022-10-05T07:36:21.615Z,9.36
2022-10-05T07:39:06.721Z,9.33
2022-10-05T07:41:36.848Z,9.48
2022-10-05T07:44:13.292Z,9.74
2022-10-05T07:46:44.279Z,9.81
2022-10-05T07:49:24.423Z,10.02
2022-10-05T07:51:55.364Z,9.99
2022-10-05T07:54:25.732Z,10.31
2022-10-05T07:57:00.117Z,10.49
2022-10-05T07:59:26.936Z,10.81
2022-10-05T08:01:58.852Z,11.13
2022-10-05T08:04:39.357Z,11.75
2022-10-05T08:07:12.834Z,11.67
2022-10-05T08:09:39.908Z,11.42
2022-10-05T08:12:15.796Z,11.74
2022-10-05T08:14:58.280Z,11.56
2022-10-05T08:17:32.023Z,11.75
2022-10-05T08:20:04.834Z,11.64
2022-10-05T08:22:34.934Z,11.78
2022-10-05T08:25:06.488Z,12.01
2022-10-05T08:27:42.171Z,12.41
2022-10-05T08:30:10.919Z,13.15
2022-10-05T08:32:41.283Z,13.43
2022-10-05T08:35:20.361Z,13.29
2022-10-05T08:37:48.205Z,12.94
2022-10-05T08:40:15.089Z,12.78
2022-10-05T08:42:50.961Z,12.51
2022-10-05T08:45:30.225Z,13.12
2022-10-05T08:48:09.265Z,13.68
2022-10-05T08:50:45.407Z,13.50
2022-10-05T08:53:30.692Z,13.06
2022-10-05T08:56:20.407Z,12.69
2022-10-05T08:59:06.664Z,12.71
2022-10-05T09:01:55.558Z,12.63
2022-10-05T09:04:30.344Z,12.66
2022-10-05T09:07:16.572Z,12.67
2022-10-05T09:09:43.508Z,12.77
2022-10-05T09:12:10.624Z,12.80
2022-10-05T09:14:40.359Z,13.06
2022-10-05T09:17:07.203Z,13.08
2022-10-05T09:19:40.869Z,12.85
2022-10-05T09:22:26.323Z,12.83
2022-10-05T09:24:53.356Z,12.57
2022-10-05T09:27:22.672Z,12.84
2022-10-05T09:29:49.574Z,13.08
2022-10-05T09:32:38.120Z,13.06
2022-10-05T09:35:13.867Z,13.24
2022-10-05T09:37:41.156Z,13.40
2022-10-05T09:40:26.969Z,13.47
2022-10-05T09:43:12.463Z,13.50
2022-10-05T09:46:05.851Z,13.67
2022-10-05T09:48:52.108Z,13.28
2022-10-05T09:51:24.864Z,13.51
2022-10-05T09:53:52.155Z,13.45
2022-10-05T09:56:21.930Z,13.12
2022-10-05T09:59:07.632Z,13.04
2022-10-05T10:01:49.551Z,12.95
2022-10-05T10:04:25.071Z,13.07
2022-10-05T10:07:11.147Z,12.89
2022-10-05T10:09:39.751Z,12.95
2022-10-05T10:12:09.617Z,13.07
2022-10-05T10:14:36.412Z,12.94
2022-10-05T10:17:14.389Z,12.95
2022-10-05T10:19:53.540Z,13.02
2022-10-05T10:22:42.897Z,12.99
2022-10-05T10:25:13.519Z,13.01
2022-10-05T10:27:43.450Z,13.41
2022-10-05T10:30:30.156Z,13.53
2022-10-05T10:33:12.101Z,13.79
2022-10-05T10:35:55.808Z,13.63
2022-10-05T10:38:28.886Z,13.84
2022-10-05T10:41:13.675Z,13.88
2022-10-05T10:43:44.010Z,13.91
2022-10-05T10:46:10.841Z,14.36
2022-10-05T10:48:40.582Z,14.49
2022-10-05T10:51:07.723Z,14.47
2022-10-05T10:53:41.844Z,14.75
2022-10-05T10:56:12.109Z,14.57
2022-10-05T10:58:57.607Z,14.83
2022-10-05T11:01:40.204Z,14.89
2022-10-05T11:04:07.118Z,15.08
2022-10-05T11:06:34.207Z,15.53
2022-10-05T11:09:11.811Z,15.84
2022-10-05T11:11:44.859Z,15.19
2022-10-05T11:14:28.032Z,15.15
2022-10-05T11:16:55.066Z,15.05
2022-10-05T11:19:35.248Z,14.87
2022-10-05T11:22:13.519Z,15.10
2022-10-05T11:24:58.975Z,15.72
2022-10-05T11:27:29.288Z,16.38
2022-10-05T11:30:02.282Z,16.25
2022-10-05T11:32:41.903Z,15.94
2022-10-05T11:35:19.824Z,16.06
2022-10-05T11:38:05.475Z,16.23
2022-10-05T11:40:53.834Z,16.51
2022-10-05T11:43:30.051Z,17.04
2022-10-05T11:46:08.464Z,17.49
2022-10-05T11:48:54.520Z,17.17
2022-10-05T11:51:25.217Z,17.18
2022-10-05T11:54:06.805Z,17.06
2022-10-05T11:56:41.826Z,16.61
2022-10-05T11:59:08.907Z,16.51
2022-10-05T12:01:45.884Z,16.22
2022-10-05T12:04:32.837Z,15.99
2022-10-05T12:07:03.017Z,15.76
2022-10-05T12:10:02.078Z,15.49
2022-10-05T12:12:36.053Z,15.46
2022-10-05T12:15:06.307Z,15.38
2022-10-05T12:17:37.955Z,15.63
2022-10-05T12:20:14.259Z,15.98
2022-10-05T12:22:46.741Z,15.62
2022-10-05T12:25:25.697Z,15.59
2022-10-05T12:27:54.499Z,15.74
2022-10-05T12:30:44.810Z,15.83
2022-10-05T12:33:17.487Z,16.10
2022-10-05T12:35:48.762Z,16.21
2022-10-05T12:38:23.312Z,15.91
2022-10-05T12:41:06.048Z,16.01
2022-10-05T12:43:35.915Z,16.00
2022-10-05T12:46:03.068Z,16.06
2022-10-05T12:48:37.737Z,16.11
2022-10-05T12:51:05.295Z,16.05
2022-10-05T12:53:50.883Z,15.97
2022-10-05T12:56:21.688Z,15.86
2022-10-05T12:58:51.397Z,15.67
2022-10-05T13:01:40.581Z,15.66
2022-10-05T13:04:17.580Z,15.76
2022-10-05T13:06:52.825Z,15.76
2022-10-05T13:09:33.028Z,15.89
2022-10-05T13:12:03.958Z,15.86
2022-10-05T13:14:46.103Z,15.86
2022-10-05T13:17:30.976Z,15.84
2022-10-05T13:20:03.783Z,15.70
2022-10-05T13:22:33.636Z,15.63
2022-10-05T13:25:08.766Z,15.78
2022-10-05T13:27:39.098Z,16.01
2022-10-05T13:30:14.415Z,15.97
2022-10-05T13:32:45.324Z,16.04
2022-10-05T13:35:28.360Z,16.03
2022-10-05T13:37:59.982Z,16.15
2022-10-05T13:40:46.768Z,16.13
2022-10-05T13:43:18.767Z,16.03
2022-10-05T13:45:55.745Z,16.06
2022-10-05T13:48:35.989Z,15.86
2022-10-05T13:51:15.494Z,15.51
2022-10-05T13:53:48.158Z,15.58
2022-10-05T13:56:41.508Z,15.59
2022-10-05T13:59:11.978Z,15.55
2022-10-05T14:01:41.724Z,15.51
2022-10-05T14:04:16.226Z,15.40
2022-10-05T14:06:43.682Z,15.41
2022-10-05T14:09:12.916Z,15.49
2022-10-05T14:11:47.616Z,15.47
2022-10-05T14:14:33.919Z,15.49
2022-10-05T14:19:55.527Z,15.67
2022-10-05T14:22:24.320Z,15.78
2022-10-05T14:24:54.676Z,15.76
2022-10-05T14:27:21.481Z,15.85
2022-10-05T14:29:54.524Z,15.92
2022-10-05T14:32:25.365Z,16.03
2022-10-05T14:34:59.052Z,15.95
2022-10-05T14:37:31.573Z,15.94
2022-10-05T14:40:03.447Z,15.92
2022-10-05T14:42:44.931Z,15.88
2022-10-05T14:45:14.418Z,15.90
2022-10-05T14:47:52.020Z,15.81
2022-10-05T14:50:26.503Z,15.80
2022-10-05T14:53:14.324Z,15.82
2022-10-05T14:55:44.962Z,15.86
2022-10-05T14:58:28.197Z,15.82
2022-10-05T15:01:22.575Z,15.76
2022-10-05T15:04:08.436Z,15.78
2022-10-05T15:06:38.193Z,15.54
2022-10-05T15:09:17.090Z,15.50
2022-10-05T15:11:44.898Z,15.41
2022-10-05T15:14:20.162Z,15.55
2022-10-05T15:16:50.252Z,15.49
2022-10-05T15:19:21.032Z,15.58
2022-10-05T15:21:54.625Z,15.53
2022-10-05T15:24:26.528Z,15.63
2022-10-05T15:26:55.079Z,15.50
2022-10-05T15:29:26.208Z,15.42
2022-10-05T15:31:59.769Z,15.29
2022-10-05T15:34:36.258Z,15.31
2022-10-05T15:37:07.956Z,15.16
2022-10-05T15:39:48.097Z,15.06
2022-10-05T15:42:17.039Z,15.08
2022-10-05T15:44:50.040Z,15.04
2022-10-05T15:47:25.994Z,15.08
2022-10-05T15:50:02.185Z,14.95
2022-10-05T15:52:32.289Z,14.89
2022-10-05T15:55:09.596Z,14.85
2022-10-05T15:57:42.552Z,14.89
2022-10-05T16:00:12.089Z,14.87
2022-10-05T16:02:54.526Z,14.76
2022-10-05T16:05:47.567Z,14.70
2022-10-05T16:08:46.276Z,14.71
2022-10-05T16:11:19.187Z,14.66
2022-10-05T16:13:52.027Z,14.59
2022-10-05T16:16:19.490Z,14.48
2022-10-05T16:18:49.517Z,14.43
2022-10-05T16:21:16.428Z,14.26
2022-10-05T16:23:44.593Z,14.29
2022-10-05T16:26:31.823Z,14.24
2022-10-05T16:29:28.127Z,14.24
2022-10-05T16:32:05.955Z,14.19
2022-10-05T16:34:49.462Z,14.13
2022-10-05T16:37:19.617Z,14.01
2022-10-05T16:39:49.410Z,13.97
2022-10-05T16:42:18.088Z,13.96
2022-10-05T16:45:06.989Z,14.07
2022-10-05T16:47:46.685Z,13.93
2022-10-05T16:50:16.542Z,13.71
2022-10-05T16:52:45.883Z,13.73
2022-10-05T16:55:20.244Z,13.91
2022-10-05T16:57:53.372Z,13.89
2022-10-05T17:00:28.007Z,13.96
2022-10-05T17:02:57.038Z,13.92
2022-10-05T17:05:40.703Z,13.93
2022-10-05T17:08:27.133Z,13.91
2022-10-05T17:10:56.053Z,13.90
2022-10-05T17:13:29.223Z,13.75
2022-10-05T17:16:16.454Z,13.67
2022-10-05T17:19:00.303Z,13.55
2022-10-05T17:21:35.299Z,13.49
2022-10-05T17:24:12.485Z,13.34
2022-10-05T17:26:52.876Z,13.29
2022-10-05T17:29:27.328Z,13.23
2022-10-05T17:32:07.731Z,13.11
2022-10-05T17:34:38.466Z,13.03
2022-10-05T17:37:16.467Z,13.09
2022-10-05T17:39:55.457Z,13.01
2022-10-05T17:42:27.274Z,12.94
2022-10-05T17:44:56.565Z,12.78
2022-10-05T17:47:46.783Z,12.68
2022-10-05T17:50:33.263Z,12.63
2022-10-05T17:53:37.982Z,12.54
2022-10-05T17:56:06.541Z,12.44
2022-10-05T17:58:33.968Z,12.38
2022-10-05T18:01:01.676Z,12.29
2022-10-05T18:03:33.294Z,12.21
2022-10-05T18:06:20.559Z,12.12
2022-10-05T18:08:48.504Z,11.89
2022-10-05T18:11:36.847Z,11.90
2022-10-05T18:14:19.188Z,11.95
2022-10-05T18:17:02.728Z,11.82
2022-10-05T18:19:31.947Z,11.69
2022-10-05T18:22:00.452Z,11.74
2022-10-05T18:24:34.007Z,11.71
2022-10-05T18:27:05.094Z,11.82
2022-10-05T18:30:05.954Z,11.84
2022-10-05T18:32:43.132Z,11.89
2022-10-05T18:35:23.702Z,11.86
2022-10-05T18:37:51.102Z,11.83
2022-10-05T18:40:27.040Z,11.73
2022-10-05T18:43:00.189Z,11.75
2022-10-05T18:45:41.980Z,11.74
2022-10-05T18:48:21.236Z,11.70
2022-10-05T18:50:48.105Z,11.67
2022-10-05T18:53:25.546Z,11.39
2022-10-05T18:55:55.479Z,11.58
2022-10-05T18:58:26.744Z,11.59
2022-10-05T19:01:34.703Z,11.49
2022-10-05T19:04:22.360Z,11.55
2022-10-05T19:06:54.644Z,11.46
2022-10-05T19:09:48.192Z,11.35
2022-10-05T19:12:23.772Z,11.43
2022-10-05T19:14:58.037Z,11.44
2022-10-05T19:17:43.920Z,11.36
2022-10-05T19:20:17.505Z,11.45
2022-10-05T19:23:13.898Z,11.51
2022-10-05T19:25:47.695Z,11.70
2022-10-05T19:28:26.567Z,11.73
2022-10-05T19:31:00.463Z,11.66
2022-10-05T19:33:33.799Z,11.75
2022-10-05T19:36:00.937Z,11.73
2022-10-05T19:38:30.929Z,11.77
2022-10-05T19:41:00.752Z,11.85
2022-10-05T19:43:31.005Z,11.92
2022-10-05T19:45:58.927Z,11.92
2022-10-05T19:48:32.047Z,11.98
2022-10-05T19:51:00.689Z,11.96
2022-10-05T19:53:37.153Z,11.94
2022-10-05T19:56:17.147Z,11.99
2022-10-05T19:58:44.866Z,12.01
2022-10-05T20:01:12.869Z,12.02
2022-10-05T20:03:43.038Z,12.02
2022-10-05T20:06:11.004Z,12.05
2022-10-05T20:08:40.307Z,12.09
2022-10-05T20:11:11.827Z,12.10
2022-10-05T20:13:42.057Z,12.09
2022-10-05T20:16:33.822Z,12.05
2022-10-05T20:19:19.767Z,12.12
2022-10-05T20:21:58.852Z,12.11
2022-10-05T20:24:26.981Z,12.11
2022-10-05T20:27:06.467Z,12.03
2022-10-05T20:29:38.284Z,11.99
2022-10-05T20:32:10.057Z,11.99
2022-10-05T20:34:37.519Z,11.93
2022-10-05T20:37:04.658Z,11.98
2022-10-05T20:39:31.897Z,11.96
2022-10-05T20:41:59.648Z,11.97
2022-10-05T20:44:27.052Z,12.00
2022-10-05T20:46:58.573Z,12.01
2022-10-05T20:49:26.516Z,11.95
2022-10-05T20:51:55.769Z,11.91
2022-10-05T20:54:23.941Z,11.90
2022-10-05T20:56:51.334Z,11.88
2022-10-05T20:59:18.256Z,11.93
2022-10-05T21:01:48.059Z,11.93
2022-10-05T21:04:24.872Z,11.95
2022-10-05T21:06:53.097Z,11.97
2022-10-05T21:09:21.505Z,11.93
2022-10-05T21:11:53.057Z,11.91
2022-10-05T21:14:20.355Z,11.99
2022-10-05T21:16:47.265Z,11.93
2022-10-05T21:19:15.057Z,11.89
2022-10-05T21:21:43.166Z,11.94
2022-10-05T21:24:11.288Z,11.92
2022-10-05T21:26:38.144Z,11.87
2022-10-05T21:29:10.242Z,11.90
2022-10-05T21:31:39.276Z,11.88
2022-10-05T21:34:06.570Z,11.86
2022-10-05T21:36:33.501Z,11.83
2022-10-05T21:39:00.525Z,11.80
2022-10-05T21:41:27.692Z,11.69
2022-10-05T21:43:54.603Z,11.67
2022-10-05T21:46:23.100Z,11.69
2022-10-05T21:48:50.318Z,11.70
2022-10-05T21:51:18.744Z,11.74
2022-10-05T21:54:08.680Z,11.72
2022-10-05T21:56:37.349Z,11.68
2022-10-05T21:59:06.719Z,11.64
2022-10-05T22:01:36.056Z,11.71
2022-10-05T22:04:04.128Z,11.67
2022-10-05T22:06:31.975Z,11.63
2022-10-05T22:08:59.723Z,11.65
2022-10-05T22:11:26.813Z,11.71
2022-10-05T22:13:53.970Z,11.68
2022-10-05T22:16:22.379Z,11.69
2022-10-05T22:18:49.651Z,11.68
2022-10-05T22:21:16.916Z,11.65
2022-10-05T22:23:45.517Z,11.73
2022-10-05T22:26:13.448Z,11.70
2022-10-05T22:28:41.295Z,11.73
2022-10-05T22:31:09.712Z,11.75
2022-10-05T22:33:37.321Z,11.76
2022-10-05T22:36:05.665Z,11.73
2022-10-05T22:38:32.708Z,11.80
2022-10-05T22:40:59.819Z,11.73
2022-10-05T22:43:27.222Z,11.81
2022-10-05T22:45:54.469Z,11.71
2022-10-05T22:48:21.397Z,11.78
2022-10-05T22:50:49.353Z,11.79
2022-10-05T22:53:16.367Z,11.79
2022-10-05T22:55:43.255Z,11.76
2022-10-05T22:58:10.518Z,11.81
2022-10-05T23:00:57.135Z,11.72
2022-10-05T23:03:24.502Z,11.77
2022-10-05T23:05:58.485Z,11.83
2022-10-05T23:08:26.120Z,11.85
2022-10-05T23:10:53.407Z,11.81
2022-10-05T23:13:22.585Z,11.86
2022-10-05T23:15:49.659Z,11.98
2022-10-05T23:18:16.827Z,12.02
2022-10-05T23:20:43.980Z,11.99
2022-10-05T23:23:11.056Z,12.02
2022-10-05T23:25:37.974Z,12.03
2022-10-05T23:28:05.081Z,12.02
2022-10-05T23:30:32.295Z,12.08
2022-10-05T23:32:59.151Z,12.03
2022-10-05T23:35:26.017Z,11.93
2022-10-05T23:37:53.164Z,11.84
2022-10-05T23:40:20.032Z,11.81
2022-10-05T23:42:47.153Z,11.89
2022-10-05T23:45:14.418Z,11.90
2022-10-05T23:47:41.305Z,11.93
2022-10-05T23:50:08.710Z,11.97
2022-10-05T23:52:36.442Z,11.85
2022-10-05T23:55:04.415Z,11.97
2022-10-05T23:57:31.378Z,11.82
2022-10-05T23:59:58.510Z,11.83
